createdAt,value
2023-12-04T00:00:59.376Z,979.7
2023-12-04T00:01:59.367Z,979.9
2023-12-04T00:02:59.335Z,980.1
2023-12-04T00:03:59.443Z,979.9
2023-12-04T00:04:59.359Z,979.7
2023-12-04T00:05:59.340Z,979.7
2023-12-04T00:06:59.345Z,979.3
2023-12-04T00:07:59.322Z,979.3
2023-12-04T00:08:59.316Z,979.3
2023-12-04T00:09:59.341Z,979.3
2023-12-04T00:10:59.331Z,979.3
2023-12-04T00:11:59.401Z,979.5
2023-12-04T00:12:59.353Z,979.5
2023-12-04T00:13:59.329Z,979.3
2023-12-04T00:14:59.317Z,979.3
2023-12-04T00:16:02.878Z,979.3
2023-12-04T00:16:59.323Z,979
2023-12-04T00:17:59.387Z,979.3
2023-12-04T00:18:59.372Z,978.8
2023-12-04T00:19:59.316Z,979.3
2023-12-04T00:20:59.312Z,979.3
2023-12-04T00:21:59.384Z,979.3
2023-12-04T00:22:59.311Z,979.3
2023-12-04T00:23:59.320Z,979.3
2023-12-04T00:24:59.361Z,979.3
2023-12-04T00:25:59.313Z,979.3
2023-12-04T00:26:59.327Z,979.3
2023-12-04T00:27:59.340Z,979.5
2023-12-04T00:28:59.339Z,979.7
2023-12-04T00:29:59.329Z,979.7
2023-12-04T00:30:59.348Z,979.5
2023-12-04T00:31:59.313Z,979.7
2023-12-04T00:32:59.455Z,979.5
2023-12-04T00:33:59.400Z,979.3
2023-12-04T00:34:59.312Z,979.3
2023-12-04T00:35:59.312Z,979.3
2023-12-04T00:36:59.346Z,979.3
2023-12-04T00:37:59.319Z,979.3
2023-12-04T00:38:59.347Z,979.3
2023-12-04T00:39:59.369Z,979.3
2023-12-04T00:40:59.324Z,979.3
2023-12-04T00:41:59.346Z,979.3
2023-12-04T00:42:59.383Z,978.8
2023-12-04T00:43:59.339Z,979.3
2023-12-04T00:44:59.346Z,979.3
2023-12-04T00:45:59.365Z,979.3
2023-12-04T00:46:59.371Z,979
2023-12-04T00:47:59.446Z,979.3
2023-12-04T00:48:59.428Z,979.3
2023-12-04T00:49:59.351Z,979
2023-12-04T00:50:59.318Z,979
2023-12-04T00:51:59.344Z,978.8
2023-12-04T00:52:59.314Z,979
2023-12-04T00:53:59.316Z,979.3
2023-12-04T00:54:59.328Z,979.3
2023-12-04T00:55:59.319Z,979.3
2023-12-04T00:56:59.576Z,979.3
2023-12-04T00:57:59.368Z,979.3
2023-12-04T00:58:59.336Z,979.3
2023-12-04T00:59:59.319Z,979.3
2023-12-04T01:00:59.353Z,979.5
2023-12-04T01:01:59.389Z,979.7
2023-12-04T01:02:59.373Z,979.7
2023-12-04T01:03:59.344Z,979.7
2023-12-04T01:04:59.325Z,980.1
2023-12-04T01:05:59.317Z,980.1
2023-12-04T01:06:59.334Z,980.6
2023-12-04T01:07:59.317Z,981
2023-12-04T01:08:59.323Z,981.4
2023-12-04T01:09:59.402Z,981.7
2023-12-04T01:10:59.315Z,981.9
2023-12-04T01:11:59.362Z,982.3
2023-12-04T01:12:59.328Z,982.3
2023-12-04T01:13:59.313Z,982.3
2023-12-04T01:14:59.321Z,982.3
2023-12-04T01:15:59.367Z,982.1
2023-12-04T01:16:59.329Z,982.3
2023-12-04T01:17:59.386Z,982.3
2023-12-04T01:18:59.431Z,982.5
2023-12-04T01:19:59.320Z,982.7
2023-12-04T01:20:59.334Z,983.2
2023-12-04T01:21:59.340Z,983.2
2023-12-04T01:23:00.270Z,983.2
2023-12-04T01:23:59.321Z,983.2
2023-12-04T01:24:59.333Z,983.2
2023-12-04T01:25:59.318Z,983.2
2023-12-04T01:26:59.315Z,983
2023-12-04T01:27:59.355Z,983
2023-12-04T01:28:59.320Z,982.7
2023-12-04T01:29:59.326Z,982.7
2023-12-04T01:30:59.349Z,982.3
2023-12-04T01:31:59.318Z,982.3
2023-12-04T01:32:59.388Z,982.3
2023-12-04T01:33:59.396Z,982.3
2023-12-04T01:34:59.323Z,982.3
2023-12-04T01:35:59.324Z,982.3
2023-12-04T01:36:59.350Z,982.3
2023-12-04T01:37:59.324Z,982.1
2023-12-04T01:38:59.329Z,981.9
2023-12-04T01:39:59.345Z,981.9
2023-12-04T01:40:59.320Z,981.9
2023-12-04T01:41:59.323Z,981.9
2023-12-04T01:42:59.354Z,981.9
2023-12-04T01:43:59.319Z,981.7
2023-12-04T01:44:59.320Z,981.7
2023-12-04T01:45:59.332Z,981.4
2023-12-04T01:46:59.343Z,981.4
2023-12-04T01:47:59.381Z,981.4
2023-12-04T01:48:59.399Z,981.4
2023-12-04T01:49:59.343Z,981.2
2023-12-04T01:50:59.333Z,981.4
2023-12-04T01:51:59.370Z,981.4
2023-12-04T01:52:59.318Z,981.4
2023-12-04T01:53:59.337Z,981.2
2023-12-04T01:55:03.878Z,981
2023-12-04T01:55:59.321Z,981
2023-12-04T01:56:59.320Z,981
2023-12-04T01:57:59.342Z,980.8
2023-12-04T01:58:59.326Z,980.6
2023-12-04T01:59:59.319Z,980.6
2023-12-04T02:00:59.361Z,980.6
2023-12-04T02:01:59.373Z,980.1
2023-12-04T02:02:59.391Z,980.1
2023-12-04T02:03:59.372Z,980.1
2023-12-04T02:04:59.364Z,980.1
2023-12-04T02:05:59.323Z,980.1
2023-12-04T02:06:59.346Z,980.1
2023-12-04T02:07:59.319Z,980.1
2023-12-04T02:08:59.313Z,980.1
2023-12-04T02:09:59.388Z,980.4
2023-12-04T02:10:59.323Z,980.6
2023-12-04T02:11:59.388Z,980.6
2023-12-04T02:12:59.360Z,980.8
2023-12-04T02:13:59.322Z,981
2023-12-04T02:14:59.332Z,981
2023-12-04T02:15:59.348Z,981
2023-12-04T02:16:59.328Z,981
2023-12-04T02:17:59.376Z,981.4
2023-12-04T02:18:59.383Z,981.4
2023-12-04T02:19:59.343Z,981.4
2023-12-04T02:20:59.326Z,981.7
2023-12-04T02:21:59.386Z,981.7
2023-12-04T02:22:59.320Z,981.9
2023-12-04T02:23:59.364Z,981.9
2023-12-04T02:24:59.357Z,981.4
2023-12-04T02:25:59.327Z,981.7
2023-12-04T02:26:59.343Z,981.4
2023-12-04T02:27:59.385Z,981.4
2023-12-04T02:28:59.320Z,981.4
2023-12-04T02:29:59.349Z,981.4
2023-12-04T02:30:59.335Z,981.4
2023-12-04T02:31:59.320Z,981.2
2023-12-04T02:32:59.339Z,981.2
2023-12-04T02:33:59.420Z,981
2023-12-04T02:34:59.340Z,981
2023-12-04T02:35:59.321Z,980.8
2023-12-04T02:36:59.349Z,980.6
2023-12-04T02:37:59.351Z,980.6
2023-12-04T02:38:59.324Z,980.6
2023-12-04T02:39:59.351Z,980.1
2023-12-04T02:40:59.325Z,980.1
2023-12-04T02:41:59.336Z,980.1
2023-12-04T02:42:59.365Z,980.1
2023-12-04T02:43:59.335Z,979.9
2023-12-04T02:44:59.327Z,979.9
2023-12-04T02:45:59.347Z,979.7
2023-12-04T02:46:59.350Z,979.7
2023-12-04T02:47:59.368Z,979.7
2023-12-04T02:48:59.502Z,979.7
2023-12-04T02:49:59.354Z,979.7
2023-12-04T02:50:59.328Z,979.5
2023-12-04T02:51:59.385Z,979.5
2023-12-04T02:52:59.321Z,979.3
2023-12-04T02:53:59.353Z,979.3
2023-12-04T02:54:59.342Z,979.3
2023-12-04T02:55:59.317Z,979.3
2023-12-04T02:56:59.320Z,979.3
2023-12-04T02:57:59.709Z,979.5
2023-12-04T02:58:59.330Z,979.5
2023-12-04T02:59:59.332Z,979.7
2023-12-04T03:00:59.256Z,979.7
2023-12-04T03:01:59.350Z,979.5
2023-12-04T03:02:59.385Z,979.5
2023-12-04T03:03:59.437Z,979.3
2023-12-04T03:04:59.350Z,979.5
2023-12-04T03:05:59.352Z,979.3
2023-12-04T03:06:59.377Z,979.5
2023-12-04T03:07:59.322Z,979.5
2023-12-04T03:08:59.337Z,979.3
2023-12-04T03:09:59.376Z,979.3
2023-12-04T03:10:59.334Z,979.3
2023-12-04T03:11:59.339Z,979.3
2023-12-04T03:12:59.377Z,979.3
2023-12-04T03:13:59.332Z,979.3
2023-12-04T03:14:59.347Z,979.3
2023-12-04T03:15:59.366Z,979.3
2023-12-04T03:16:59.334Z,979.3
2023-12-04T03:17:59.416Z,979.3
2023-12-04T03:18:59.481Z,979.3
2023-12-04T03:19:59.379Z,979
2023-12-04T03:20:59.336Z,979.3
2023-12-04T03:21:59.388Z,979.3
2023-12-04T03:22:59.332Z,979.3
2023-12-04T03:23:59.335Z,979.3
2023-12-04T03:24:59.428Z,979
2023-12-04T03:25:59.382Z,979
2023-12-04T03:26:59.342Z,979
2023-12-04T03:27:59.375Z,979
2023-12-04T03:28:59.361Z,979
2023-12-04T03:29:59.421Z,979
2023-12-04T03:30:59.415Z,979
2023-12-04T03:31:59.335Z,978.8
2023-12-04T03:32:59.404Z,979.3
2023-12-04T03:33:59.412Z,979.3
2023-12-04T03:34:59.327Z,979.5
2023-12-04T03:35:59.326Z,979.5
2023-12-04T03:36:59.379Z,979.5
2023-12-04T03:37:59.339Z,979.7
2023-12-04T03:38:59.331Z,979.7
2023-12-04T03:39:59.365Z,979.7
2023-12-04T03:40:59.327Z,979.9
2023-12-04T03:41:59.322Z,980.1
2023-12-04T03:42:59.355Z,980.4
2023-12-04T03:43:59.327Z,980.6
2023-12-04T03:44:59.353Z,980.6
2023-12-04T03:45:59.357Z,980.6
2023-12-04T03:46:59.338Z,980.6
2023-12-04T03:47:59.418Z,980.6
2023-12-04T03:48:59.408Z,980.6
2023-12-04T03:49:59.363Z,980.6
2023-12-04T03:50:59.320Z,980.6
2023-12-04T03:51:59.327Z,980.6
2023-12-04T03:52:59.346Z,980.6
2023-12-04T03:53:59.326Z,980.6
2023-12-04T03:54:59.394Z,980.4
2023-12-04T03:55:59.331Z,980.4
2023-12-04T03:56:59.332Z,980.1
2023-12-04T03:57:59.378Z,980.1
2023-12-04T03:58:59.325Z,980.1
2023-12-04T03:59:59.355Z,980.1
2023-12-04T04:00:59.383Z,980.1
2023-12-04T04:01:59.334Z,980.4
2023-12-04T04:02:59.379Z,980.4
2023-12-04T04:03:59.406Z,980.4
2023-12-04T04:04:59.326Z,980.4
2023-12-04T04:05:59.322Z,980.6
2023-12-04T04:06:59.403Z,980.6
2023-12-04T04:07:59.323Z,980.6
2023-12-04T04:08:59.328Z,980.6
2023-12-04T04:09:59.380Z,980.8
2023-12-04T04:10:59.327Z,980.6
2023-12-04T04:11:59.331Z,980.6
2023-12-04T04:12:59.382Z,980.6
2023-12-04T04:13:59.320Z,980.6
2023-12-04T04:14:59.323Z,980.6
2023-12-04T04:15:59.362Z,980.6
2023-12-04T04:16:59.323Z,980.6
2023-12-04T04:17:59.409Z,980.6
2023-12-04T04:18:59.417Z,980.6
2023-12-04T04:19:59.337Z,980.6
2023-12-04T04:20:59.333Z,980.6
2023-12-04T04:21:59.398Z,980.4
2023-12-04T04:22:59.328Z,980.6
2023-12-04T04:23:59.322Z,980.6
2023-12-04T04:24:59.334Z,980.6
2023-12-04T04:25:59.371Z,980.6
2023-12-04T04:26:59.329Z,980.6
2023-12-04T04:27:59.377Z,980.6
2023-12-04T04:28:59.325Z,980.6
2023-12-04T04:29:59.329Z,980.6
2023-12-04T04:30:59.384Z,980.8
2023-12-04T04:31:59.324Z,980.8
2023-12-04T04:32:59.349Z,980.8
2023-12-04T04:33:59.419Z,980.6
2023-12-04T04:34:59.437Z,980.6
2023-12-04T04:35:59.326Z,980.6
2023-12-04T04:36:59.389Z,980.6
2023-12-04T04:37:59.337Z,980.6
2023-12-04T04:38:59.342Z,980.8
2023-12-04T04:39:59.420Z,980.8
2023-12-04T04:40:59.361Z,980.8
2023-12-04T04:41:59.326Z,981
2023-12-04T04:42:59.363Z,981
2023-12-04T04:43:59.323Z,981
2023-12-04T04:44:59.330Z,980.8
2023-12-04T04:45:59.377Z,980.8
2023-12-04T04:46:59.363Z,980.8
2023-12-04T04:47:59.381Z,980.8
2023-12-04T04:48:59.405Z,981
2023-12-04T04:49:59.429Z,981
2023-12-04T04:50:59.326Z,981
2023-12-04T04:51:59.402Z,981
2023-12-04T04:52:59.337Z,981
2023-12-04T04:53:59.325Z,981
2023-12-04T04:54:59.432Z,981
2023-12-04T04:55:59.328Z,981
2023-12-04T04:57:05.912Z,981
2023-12-04T04:57:59.395Z,981
2023-12-04T04:58:59.316Z,981
2023-12-04T04:59:59.338Z,981
2023-12-04T05:00:59.374Z,981
2023-12-04T05:01:59.337Z,981
2023-12-04T05:02:59.342Z,980.8
2023-12-04T05:03:59.443Z,980.8
2023-12-04T05:04:59.373Z,980.8
2023-12-04T05:05:59.348Z,980.6
2023-12-04T05:06:59.341Z,980.6
2023-12-04T05:07:59.317Z,980.6
2023-12-04T05:08:59.336Z,980.6
2023-12-04T05:09:59.364Z,980.6
2023-12-04T05:10:59.314Z,980.6
2023-12-04T05:11:59.316Z,980.6
2023-12-04T05:12:59.322Z,980.6
2023-12-04T05:13:59.321Z,980.8
2023-12-04T05:14:59.306Z,980.6
2023-12-04T05:15:59.336Z,980.6
2023-12-04T05:16:59.342Z,980.8
2023-12-04T05:17:59.336Z,980.8
2023-12-04T05:18:59.400Z,981
2023-12-04T05:19:59.419Z,981
2023-12-04T05:20:59.310Z,981
2023-12-04T05:21:59.338Z,981.2
2023-12-04T05:22:59.329Z,981.4
2023-12-04T05:23:59.320Z,981.4
2023-12-04T05:24:59.382Z,981.4
2023-12-04T05:25:59.318Z,981.4
2023-12-04T05:26:59.319Z,981.4
2023-12-04T05:27:59.392Z,981.4
2023-12-04T05:28:59.312Z,981.4
2023-12-04T05:29:59.318Z,981.4
2023-12-04T05:30:59.343Z,981.4
2023-12-04T05:31:59.316Z,981.9
2023-12-04T05:32:59.400Z,981.9
2023-12-04T05:33:59.467Z,981.9
2023-12-04T05:34:59.313Z,982.1
2023-12-04T05:35:59.304Z,982.1
2023-12-04T05:36:59.369Z,982.1
2023-12-04T05:37:59.322Z,982.3
2023-12-04T05:39:01.537Z,982.3
2023-12-04T05:39:59.352Z,982.3
2023-12-04T05:40:59.314Z,982.3
2023-12-04T05:41:59.343Z,982.3
2023-12-04T05:42:59.453Z,982.3
2023-12-04T05:43:59.342Z,982.5
2023-12-04T05:44:59.334Z,982.5
2023-12-04T05:45:59.322Z,982.5
2023-12-04T05:46:59.305Z,982.5
2023-12-04T05:47:59.395Z,982.7
2023-12-04T05:48:59.410Z,982.7
2023-12-04T05:49:59.381Z,982.7
2023-12-04T05:50:59.313Z,982.7
2023-12-04T05:51:59.351Z,982.7
2023-12-04T05:52:59.320Z,982.5
2023-12-04T05:53:59.316Z,982.7
2023-12-04T05:54:59.358Z,982.5
2023-12-04T05:55:59.326Z,982.3
2023-12-04T05:56:59.323Z,982.3
2023-12-04T05:57:59.384Z,982.5
2023-12-04T05:58:59.369Z,982.3
2023-12-04T05:59:59.321Z,982.3
2023-12-04T06:00:59.349Z,982.5
2023-12-04T06:01:59.435Z,982.3
2023-12-04T06:02:59.354Z,982.5
2023-12-04T06:03:59.393Z,982.7
2023-12-04T06:04:59.352Z,982.7
2023-12-04T06:06:01.514Z,982.7
2023-12-04T06:06:59.336Z,982.7
2023-12-04T06:07:59.373Z,982.7
2023-12-04T06:08:59.323Z,982.7
2023-12-04T06:09:59.354Z,982.5
2023-12-04T06:10:59.344Z,982.5
2023-12-04T06:11:59.335Z,982.5
2023-12-04T06:12:59.799Z,982.5
2023-12-04T06:13:59.336Z,982.5
2023-12-04T06:14:59.339Z,982.5
2023-12-04T06:15:59.373Z,982.3
2023-12-04T06:16:59.319Z,982.3
2023-12-04T06:17:59.425Z,982.3
2023-12-04T06:18:59.378Z,982.3
2023-12-04T06:19:59.347Z,982.3
2023-12-04T06:20:59.330Z,982.1
2023-12-04T06:21:59.381Z,981.9
2023-12-04T06:22:59.329Z,982.1
2023-12-04T06:23:59.340Z,982.1
2023-12-04T06:24:59.357Z,982.3
2023-12-04T06:25:59.331Z,982.3
2023-12-04T06:26:59.339Z,982.3
2023-12-04T06:27:59.350Z,982.3
2023-12-04T06:28:59.326Z,982.1
2023-12-04T06:29:59.351Z,982.1
2023-12-04T06:30:59.408Z,982.1
2023-12-04T06:31:59.327Z,981.9
2023-12-04T06:32:59.338Z,981.9
2023-12-04T06:33:59.387Z,981.9
2023-12-04T06:34:59.345Z,981.9
2023-12-04T06:35:59.367Z,981.9
2023-12-04T06:36:59.352Z,981.9
2023-12-04T06:37:59.318Z,981.9
2023-12-04T06:38:59.324Z,981.7
2023-12-04T06:39:59.350Z,981.7
2023-12-04T06:40:59.345Z,981.4
2023-12-04T06:41:59.489Z,981.4
2023-12-04T06:42:59.355Z,981.4
2023-12-04T06:43:59.318Z,981.4
2023-12-04T06:44:59.352Z,981.4
2023-12-04T06:45:59.374Z,981.4
2023-12-04T06:46:59.320Z,981.2
2023-12-04T06:47:59.349Z,981.2
2023-12-04T06:48:59.394Z,981.2
2023-12-04T06:54:59.406Z,980.8
2023-12-04T06:55:59.286Z,980.6
2023-12-04T06:56:59.281Z,980.6
2023-12-04T06:57:59.299Z,980.6
2023-12-04T06:58:59.278Z,980.6
2023-12-04T06:59:59.257Z,980.6
2023-12-04T07:00:59.277Z,980.6
2023-12-04T07:01:59.339Z,980.6
2023-12-04T07:02:59.253Z,980.4
2023-12-04T07:03:59.326Z,980.4
2023-12-04T07:04:59.251Z,980.6
2023-12-04T07:05:59.303Z,980.4
2023-12-04T07:06:59.454Z,980.4
2023-12-04T07:07:59.258Z,980.4
2023-12-04T07:08:59.351Z,980.6
2023-12-04T07:09:59.302Z,980.6
2023-12-04T07:10:59.258Z,980.6
2023-12-04T07:11:59.252Z,981
2023-12-04T07:12:59.284Z,981
2023-12-04T07:13:59.260Z,981.2
2023-12-04T07:14:59.282Z,981.4
2023-12-04T07:15:59.333Z,981.4
2023-12-04T07:16:59.254Z,981.4
2023-12-04T07:17:59.338Z,981.4
2023-12-04T07:18:59.463Z,981.7
2023-12-04T07:19:59.273Z,981.7
2023-12-04T07:20:59.263Z,981.9
2023-12-04T07:21:59.297Z,981.9
2023-12-04T07:22:59.309Z,981.4
2023-12-04T07:23:59.272Z,981.4
2023-12-04T07:24:59.303Z,981
2023-12-04T07:25:59.251Z,980.8
2023-12-04T07:26:59.255Z,980.8
2023-12-04T07:27:59.375Z,980.6
2023-12-04T07:28:59.259Z,980.6
2023-12-04T07:29:59.269Z,980.6
2023-12-04T07:30:59.319Z,980.6
2023-12-04T07:31:59.259Z,980.6
2023-12-04T07:32:59.292Z,980.6
2023-12-04T07:33:59.297Z,980.6
2023-12-04T07:34:59.317Z,980.6
2023-12-04T07:35:59.253Z,980.6
2023-12-04T07:36:59.294Z,980.6
2023-12-04T07:37:59.259Z,980.1
2023-12-04T07:38:59.268Z,980.1
2023-12-04T07:39:59.406Z,980.1
2023-12-04T07:40:59.250Z,980.4
2023-12-04T07:42:11.965Z,980.1
2023-12-04T07:42:59.315Z,980.1
2023-12-04T07:43:59.254Z,980.1
2023-12-04T07:44:59.251Z,980.1
2023-12-04T07:45:59.401Z,980.1
2023-12-04T07:46:59.254Z,980.1
2023-12-04T07:47:59.262Z,979.9
2023-12-04T07:48:59.390Z,979.7
2023-12-04T07:49:59.287Z,979.9
2023-12-04T07:50:59.254Z,980.1
2023-12-04T07:51:59.292Z,980.1
2023-12-04T07:52:59.257Z,980.1
2023-12-04T07:54:02.174Z,980.1
2023-12-04T07:54:59.313Z,979.9
2023-12-04T07:55:59.251Z,979.7
2023-12-04T07:56:59.250Z,979.9
2023-12-04T07:57:59.302Z,979.7
2023-12-04T07:58:59.269Z,979.7
2023-12-04T07:59:59.250Z,979.7
2023-12-04T08:00:59.342Z,979.5
2023-12-04T08:01:59.345Z,979.3
2023-12-04T08:02:59.248Z,979.3
2023-12-04T08:03:59.388Z,979
2023-12-04T08:04:59.254Z,978.8
2023-12-04T08:05:59.277Z,978.4
2023-12-04T08:06:59.307Z,978.4
2023-12-04T08:07:59.248Z,978.4
2023-12-04T08:08:59.274Z,978.4
2023-12-04T08:09:59.304Z,978.4
2023-12-04T08:10:59.254Z,978.4
2023-12-04T08:11:59.258Z,978.4
2023-12-04T08:12:59.311Z,978.6
2023-12-04T08:13:59.251Z,978.6
2023-12-04T08:14:59.253Z,978.4
2023-12-04T08:15:59.302Z,978.4
2023-12-04T08:16:59.261Z,978.6
2023-12-04T08:17:59.311Z,978.8
2023-12-04T08:18:59.399Z,978.8
2023-12-04T08:19:59.330Z,978.4
2023-12-04T08:20:59.325Z,978.4
2023-12-04T08:21:59.266Z,978.4
2023-12-04T08:22:59.301Z,978.4
2023-12-04T08:23:59.246Z,978.4
2023-12-04T08:24:59.311Z,978.4
2023-12-04T08:25:59.965Z,978.4
2023-12-04T08:26:59.250Z,978.4
2023-12-04T08:27:59.276Z,978.6
2023-12-04T08:28:59.250Z,978.8
2023-12-04T08:29:59.249Z,978.4
2023-12-04T08:30:59.272Z,978.4
2023-12-04T08:31:59.271Z,978.4
2023-12-04T08:32:59.403Z,978.6
2023-12-04T08:33:59.283Z,978.4
2023-12-04T08:34:59.261Z,978.4
2023-12-04T08:35:59.285Z,978.4
2023-12-04T08:36:59.314Z,978.4
2023-12-04T08:37:59.452Z,978.4
2023-12-04T08:38:59.384Z,978.8
2023-12-04T08:39:59.267Z,978.4
2023-12-04T08:40:59.250Z,978.4
2023-12-04T08:42:03.357Z,978.8
2023-12-04T08:42:59.294Z,978.4
2023-12-04T08:43:59.279Z,978.4
2023-12-04T08:44:59.274Z,978.8
2023-12-04T08:45:59.354Z,978.6
2023-12-04T08:46:59.629Z,978.2
2023-12-04T08:47:59.299Z,978
2023-12-04T08:48:59.350Z,978
2023-12-04T08:49:59.433Z,977.7
2023-12-04T08:50:59.258Z,977.5
2023-12-04T08:51:59.296Z,977.7
2023-12-04T08:52:59.251Z,977.7
2023-12-04T08:53:59.296Z,977.5
2023-12-04T08:54:59.296Z,977.7
2023-12-04T08:55:59.274Z,977.7
2023-12-04T08:56:59.253Z,977.5
2023-12-04T08:57:59.322Z,977.3
2023-12-04T08:58:59.293Z,977.5
2023-12-04T08:59:59.261Z,977.5
2023-12-04T09:00:59.294Z,977.5
2023-12-04T09:01:59.333Z,977.1
2023-12-04T09:03:08.108Z,976.9
2023-12-04T09:03:59.553Z,976.7
2023-12-04T09:04:59.390Z,976.7
2023-12-04T09:05:59.625Z,976.7
2023-12-04T09:08:29.992Z,977.1
2023-12-04T09:09:05.309Z,977.3
2023-12-04T09:09:59.471Z,977.5
2023-12-04T09:11:10.879Z,977.5
2023-12-04T09:12:05.264Z,977.5
2023-12-04T09:12:59.255Z,977.1
2023-12-04T09:13:59.269Z,977.1
2023-12-04T09:15:06.885Z,977.3
2023-12-04T09:15:59.261Z,977.1
2023-12-04T09:16:59.260Z,977.1
2023-12-04T09:17:59.284Z,977.1
2023-12-04T09:18:59.316Z,977.1
2023-12-04T09:19:59.327Z,976.7
2023-12-04T09:20:59.251Z,976.2
2023-12-04T09:22:08.243Z,976.4
2023-12-04T09:23:04.406Z,976.7
2023-12-04T09:23:59.316Z,976.4
2023-12-04T09:24:59.248Z,976.2
2023-12-04T09:25:59.267Z,975.8
2023-12-04T09:26:59.251Z,975.8
2023-12-04T09:27:59.274Z,974.9
2023-12-04T09:28:59.263Z,974.7
2023-12-04T09:29:59.258Z,974.9
2023-12-04T09:30:59.265Z,974.9
2023-12-04T09:31:59.262Z,975.4
2023-12-04T09:32:59.365Z,975.4
2023-12-04T09:33:59.333Z,975.1
2023-12-04T09:34:59.256Z,974.7
2023-12-04T09:35:59.281Z,974.9
2023-12-04T09:37:06.112Z,974.5
2023-12-04T09:37:59.257Z,974.5
2023-12-04T09:38:59.255Z,974.5
2023-12-04T09:39:59.255Z,974.5
2023-12-04T09:40:59.253Z,974.3
2023-12-04T09:41:59.248Z,974
2023-12-04T09:42:59.260Z,973.6
2023-12-04T09:43:59.251Z,973.4
2023-12-04T09:44:59.254Z,973.2
2023-12-04T09:45:59.256Z,973.6
2023-12-04T09:46:59.299Z,974.3
2023-12-04T09:47:59.426Z,974.7
2023-12-04T09:48:59.696Z,974.5
2023-12-04T09:49:59.554Z,974.5
2023-12-04T09:51:00.276Z,974.9
2023-12-04T09:51:59.252Z,975.1
2023-12-04T09:52:59.279Z,974.9
2023-12-04T09:53:59.258Z,974.7
2023-12-04T09:54:59.264Z,975.1
2023-12-04T09:55:59.510Z,975.6
2023-12-04T09:56:59.263Z,975.6
2023-12-04T09:57:59.259Z,975.4
2023-12-04T09:58:59.287Z,974.9
2023-12-04T09:59:59.266Z,974.9
2023-12-04T10:00:59.274Z,974.9
2023-12-04T10:01:59.337Z,974.9
2023-12-04T10:02:59.340Z,974.5
2023-12-04T10:03:59.349Z,974.5
2023-12-04T10:04:59.349Z,973.8
2023-12-04T10:05:59.291Z,973.8
2023-12-04T10:06:59.269Z,973.6
2023-12-04T10:07:59.261Z,973.4
2023-12-04T10:08:59.284Z,973
2023-12-04T10:09:59.265Z,973.2
2023-12-04T10:10:59.264Z,972.7
2023-12-04T10:11:59.258Z,972.7
2023-12-04T10:12:59.323Z,972.3
2023-12-04T10:14:03.917Z,972.3
2023-12-04T10:14:59.267Z,972.1
2023-12-04T10:15:59.298Z,972.1
2023-12-04T10:16:59.257Z,972.1
2023-12-04T10:17:59.368Z,971.7
2023-12-04T10:18:59.285Z,971
2023-12-04T10:19:59.298Z,970.8
2023-12-04T10:20:59.266Z,971
2023-12-04T10:21:59.310Z,971.7
2023-12-04T10:22:59.261Z,971.7
2023-12-04T10:23:59.271Z,971
2023-12-04T10:24:59.255Z,970.4
2023-12-04T10:25:59.263Z,970.1
2023-12-04T10:26:59.434Z,970.1
2023-12-04T10:28:08.989Z,971
2023-12-04T10:28:59.270Z,971.4
2023-12-04T10:29:59.274Z,971
2023-12-04T10:30:59.280Z,970.6
2023-12-04T10:32:00.146Z,970.4
2023-12-04T10:32:59.354Z,970.6
2023-12-04T10:33:59.415Z,970.6
2023-12-04T10:34:59.274Z,971
2023-12-04T10:35:59.288Z,971.4
2023-12-04T10:36:59.292Z,971.4
2023-12-04T10:37:59.275Z,971.2
2023-12-04T10:38:59.361Z,971.2
2023-12-04T10:39:59.278Z,971
2023-12-04T10:40:59.287Z,970.1
2023-12-04T10:41:59.275Z,970.4
2023-12-04T10:42:59.261Z,971
2023-12-04T10:44:04.505Z,971.7
2023-12-04T10:44:59.288Z,971.9
2023-12-04T10:45:59.263Z,971.4
2023-12-04T10:46:59.287Z,970.6
2023-12-04T10:47:59.321Z,970.6
2023-12-04T10:48:59.326Z,970.6
2023-12-04T10:49:59.387Z,971.9
2023-12-04T10:50:59.281Z,972.3
2023-12-04T10:51:59.258Z,972.3
2023-12-04T10:52:59.272Z,972.3
2023-12-04T10:53:59.335Z,971.7
2023-12-04T10:54:59.304Z,970.6
2023-12-04T10:55:59.261Z,970.6
2023-12-04T10:56:59.256Z,971
2023-12-04T10:57:59.280Z,971
2023-12-04T10:58:59.260Z,970.6
2023-12-04T10:59:59.303Z,970.1
2023-12-04T11:00:59.285Z,970.6
2023-12-04T11:01:59.302Z,970.1
2023-12-04T11:02:59.320Z,969.9
2023-12-04T11:03:59.330Z,969.9
2023-12-04T11:04:59.341Z,969.3
2023-12-04T11:05:59.272Z,969
2023-12-04T11:06:59.260Z,969.3
2023-12-04T11:08:14.537Z,968.8
2023-12-04T11:09:03.205Z,968.8
2023-12-04T11:09:59.268Z,968.8
2023-12-04T11:10:59.260Z,968
2023-12-04T11:11:59.285Z,968
2023-12-04T11:13:04.582Z,968
2023-12-04T11:13:59.322Z,967.5
2023-12-04T11:14:59.261Z,967.1
2023-12-04T11:15:59.262Z,966.4
2023-12-04T11:16:59.264Z,966.2
2023-12-04T11:17:59.316Z,966.4
2023-12-04T11:18:59.305Z,966.7
2023-12-04T11:19:59.335Z,966.2
2023-12-04T11:20:59.275Z,966.4
2023-12-04T11:21:59.257Z,966.2
2023-12-04T11:22:59.261Z,966.2
2023-12-04T11:23:59.277Z,966.7
2023-12-04T11:24:59.265Z,966.7
2023-12-04T11:25:59.269Z,966.4
2023-12-04T11:26:59.283Z,965.8
2023-12-04T11:27:59.261Z,965.8
2023-12-04T11:28:59.267Z,966
2023-12-04T11:29:59.301Z,965.8
2023-12-04T11:30:59.257Z,965.4
2023-12-04T11:31:59.259Z,964.9
2023-12-04T11:32:59.282Z,966
2023-12-04T11:33:59.318Z,966.2
2023-12-04T11:34:59.258Z,966.4
2023-12-04T11:35:59.260Z,966.2
2023-12-04T11:36:59.304Z,965.8
2023-12-04T11:37:59.263Z,965.8
2023-12-04T11:38:59.257Z,966.7
2023-12-04T11:39:59.289Z,967.5
2023-12-04T11:40:59.267Z,967.5
2023-12-04T11:41:59.263Z,968
2023-12-04T11:42:59.276Z,967.5
2023-12-04T11:43:59.642Z,968
2023-12-04T11:44:59.269Z,968
2023-12-04T11:45:59.268Z,968.2
2023-12-04T11:46:59.266Z,967.7
2023-12-04T11:47:59.368Z,967.5
2023-12-04T11:48:59.420Z,967.5
2023-12-04T11:49:59.269Z,968.4
2023-12-04T11:50:59.269Z,968.8
2023-12-04T11:51:59.262Z,968.2
2023-12-04T11:52:59.268Z,968.2
2023-12-04T11:53:59.258Z,968.6
2023-12-04T11:54:59.299Z,968.4
2023-12-04T11:55:59.293Z,967.7
2023-12-04T11:56:59.261Z,967.7
2023-12-04T11:57:59.261Z,968
2023-12-04T11:58:59.277Z,968
2023-12-04T11:59:59.258Z,967.5
2023-12-04T12:00:59.263Z,967.5
2023-12-04T12:01:59.382Z,967.1
2023-12-04T12:03:16.581Z,967.5
2023-12-04T12:03:59.393Z,968
2023-12-04T12:04:59.376Z,967.5
2023-12-04T12:06:01.495Z,967.5
2023-12-04T12:06:59.361Z,967.5
2023-12-04T12:07:59.253Z,966.7
2023-12-04T12:08:59.261Z,966.7
2023-12-04T12:09:59.276Z,967.1
2023-12-04T12:10:59.252Z,966.7
2023-12-04T12:11:59.261Z,966.7
2023-12-04T12:12:59.254Z,966.7
2023-12-04T12:13:59.288Z,966.7
2023-12-04T12:14:59.325Z,967.1
2023-12-04T12:15:59.264Z,967.7
2023-12-04T12:16:59.264Z,967.7
2023-12-04T12:17:59.342Z,967.5
2023-12-04T12:18:59.282Z,968.2
2023-12-04T12:19:59.279Z,968.2
2023-12-04T12:20:59.261Z,967.3
2023-12-04T12:21:59.268Z,967.7
2023-12-04T12:22:59.252Z,967.5
2023-12-04T12:23:59.254Z,968
2023-12-04T12:24:59.291Z,968
2023-12-04T12:25:59.258Z,967.7
2023-12-04T12:26:59.269Z,967.5
2023-12-04T12:27:59.280Z,967.5
2023-12-04T12:28:59.252Z,967.1
2023-12-04T12:29:59.262Z,967.3
2023-12-04T12:30:59.254Z,967.1
2023-12-04T12:31:59.253Z,967.1
2023-12-04T12:32:59.270Z,967.1
2023-12-04T12:33:59.457Z,967.7
2023-12-04T12:34:59.270Z,968.2
2023-12-04T12:36:03.374Z,968.4
2023-12-04T12:36:59.260Z,968.4
2023-12-04T12:37:59.264Z,968
2023-12-04T12:38:59.271Z,968.4
2023-12-04T12:39:59.265Z,969
2023-12-04T12:40:59.258Z,969.3
2023-12-04T12:41:59.249Z,968.8
2023-12-04T12:43:03.270Z,969.3
2023-12-04T12:43:59.261Z,969.7
2023-12-04T12:44:59.264Z,969.3
2023-12-04T12:45:59.269Z,969.3
2023-12-04T12:46:59.259Z,969.7
2023-12-04T12:47:59.330Z,969.7
2023-12-04T12:48:59.364Z,969.7
2023-12-04T12:49:59.326Z,969.7
2023-12-04T12:50:59.263Z,969.7
2023-12-04T12:51:59.255Z,970.1
2023-12-04T12:52:59.258Z,970.8
2023-12-04T12:53:59.255Z,971
2023-12-04T12:54:59.259Z,970.6
2023-12-04T12:55:59.300Z,971
2023-12-04T12:56:59.295Z,971
2023-12-04T12:57:59.284Z,971
2023-12-04T12:58:59.255Z,971
2023-12-04T12:59:59.547Z,971.2
2023-12-04T13:00:59.353Z,971
2023-12-04T13:01:59.393Z,971.4
2023-12-04T13:02:59.792Z,971.2
2023-12-04T13:03:59.427Z,971
2023-12-04T13:04:59.413Z,971